Time;durP1;ratioP1;P1;durP2;ratioP2;P2;SDS_P1;SDS_P2;PMS_P1;PMS_P2;Temp;Humidity;BMP_temperature;BMP_pressure;BME280_temperature;BME280_humidity;BME280_pressure;Samples;Min_cycle;Max_cycle;Signal;HPM_P1;HPM_P2
2021/01/04 00:00:33;;;;;;;31.25;12.93;;;;;;;1.01;100.00;100032.27;1755932;81;21169;-76
2021/01/04 00:03:47;;;;;;;30.12;12.82;;;;;;;1.02;100.00;100035.80;1756091;81;21389;-74
2021/01/04 00:06:30;;;;;;;;;;;;;;;1.01;100.00;100045.79;1779920;80;21125;-74
2021/01/04 00:09:09;;;;;;;31.93;12.85;;;;;;;1.02;100.00;100047.96;1774793;80;20579;-74
2021/01/04 00:11:52;;;;;;;30.52;12.68;;;;;;;1.02;100.00;100050.14;1756048;81;21401;-74
2021/01/04 00:14:53;;;;;;;28.80;11.97;;;;;;;1.03;100.00;100053.13;1756146;81;20972;-74
2021/01/04 00:17:39;;;;;;;31.82;11.93;;;;;;;1.05;100.00;100041.55;1756161;81;20936;-74
2021/01/04 00:20:48;;;;;;;25.68;11.55;;;;;;;1.05;100.00;100048.30;1756005;81;20944;-75
2021/01/04 00:23:42;;;;;;;29.72;12.47;;;;;;;1.07;100.00;100052.94;1756014;81;20995;-75
2021/01/04 00:26:24;;;;;;;29.37;12.40;;;;;;;1.08;100.00;100044.30;1756124;81;21389;-75
2021/01/04 00:28:51;;;;;;;27.90;12.33;;;;;;;1.09;100.00;100044.05;1756094;81;21452;-75
2021/01/04 00:31:27;;;;;;;29.52;12.95;;;;;;;1.10;100.00;100048.41;1732695;81;21069;-74
2021/01/04 00:34:19;;;;;;;23.62;11.60;;;;;;;1.10;100.00;100044.34;1755922;81;21606;-74
2021/01/04 00:37:20;;;;;;;30.88;14.18;;;;;;;1.10;100.00;100042.99;1756040;81;21066;-74
2021/01/04 00:40:09;;;;;;;24.65;11.38;;;;;;;1.12;100.00;100038.16;1701323;81;21375;-73
2021/01/04 00:42:47;;;;;;;23.12;11.38;;;;;;;1.12;100.00;100042.75;1752539;81;20952;-74
2021/01/04 00:45:27;;;;;;;23.00;11.10;;;;;;;1.12;100.00;100042.22;1752586;81;21569;-74
2021/01/04 00:48:06;;;;;;;27.48;11.65;;;;;;;1.13;100.00;100041.69;1752547;81;21152;-75
2021/01/04 00:51:13;;;;;;;22.77;11.10;;;;;;;1.14;100.00;100041.45;1752597;81;21122;-74
2021/01/04 00:53:46;;;;;;;23.00;10.25;;;;;;;1.13;100.00;100034.93;1752559;81;21391;-74
2021/01/04 00:56:38;;;;;;;28.75;12.05;;;;;;;1.12;100.00;100034.11;1752595;81;21157;-74
2021/01/04 00:59:30;;;;;;;24.75;11.78;;;;;;;1.11;100.00;100033.00;1752548;81;21498;-74
2021/01/04 01:02:30;;;;;;;23.87;10.90;;;;;;;1.12;100.00;100030.05;1752514;81;21119;-74
2021/01/04 01:05:09;;;;;;;20.62;10.45;;;;;;;1.14;100.00;100033.86;1752570;81;21067;-72
2021/01/04 01:08:09;;;;;;;21.12;10.20;;;;;;;1.14;100.00;100035.22;1752566;81;21378;-74
2021/01/04 01:10:45;;;;;;;19.82;9.85;;;;;;;1.14;100.00;100032.52;1752489;81;20947;-72
2021/01/04 01:14:03;;;;;;;19.00;9.85;;;;;;;1.19;100.00;100027.17;1873690;75;22570;-74
2021/01/04 01:17:10;;;;;;;23.47;10.10;;;;;;;1.15;100.00;100034.16;1841692;78;20932;-73
2021/01/04 01:19:51;;;;;;;24.75;10.88;;;;;;;1.14;100.00;100041.45;1841728;77;21134;-73
2021/01/04 01:22:29;;;;;;;21.35;9.50;;;;;;;1.14;100.00;100045.50;1841648;77;20924;-73
2021/01/04 01:25:08;;;;;;;21.68;10.15;;;;;;;1.13;100.00;100043.04;1812633;78;20988;-75
2021/01/04 01:28:02;;;;;;;18.77;9.78;;;;;;;1.15;100.00;100046.33;1781709;79;20940;-74
2021/01/04 01:31:07;;;;;;;21.97;10.80;;;;;;;1.15;100.00;100051.20;1808706;79;21470;-74
2021/01/04 01:34:10;;;;;;;20.23;10.40;;;;;;;1.15;100.00;100048.50;1808683;79;22004;-74
2021/01/04 01:37:12;;;;;;;23.40;10.58;;;;;;;1.15;100.00;100052.55;1797885;79;20897;-75
2021/01/04 01:40:14;;;;;;;20.50;9.75;;;;;;;1.15;100.00;100049.84;1808192;79;20937;-74
2021/01/04 01:42:59;;;;;;;19.98;10.15;;;;;;;1.14;100.00;100041.45;1805871;79;21027;-75
2021/01/04 01:45:40;;;;;;;19.87;9.70;;;;;;;1.15;100.00;100044.97;1807439;79;20919;-75
2021/01/04 01:48:15;;;;;;;18.10;9.58;;;;;;;1.15;100.00;100041.73;1808659;79;21424;-75
2021/01/04 01:51:07;;;;;;;17.32;9.83;;;;;;;1.23;100.00;100037.79;1873716;76;22633;-75
2021/01/04 01:53:58;;;;;;;20.72;10.55;;;;;;;1.20;100.00;100031.52;1841755;77;20987;-75
2021/01/04 01:57:07;;;;;;;18.57;10.10;;;;;;;1.22;100.00;100032.09;1841732;78;22255;-74
2021/01/04 01:59:46;;;;;;;17.35;9.23;;;;;;;1.22;100.00;100038.33;1808361;78;21011;-73
2021/01/04 02:02:31;;;;;;;17.40;9.15;;;;;;;1.23;100.00;100035.91;1808594;78;20980;-73
2021/01/04 02:05:16;;;;;;;14.83;8.55;;;;;;;1.22;100.00;100039.67;1808679;79;21046;-74
2021/01/04 02:07:54;;;;;;;17.67;9.53;;;;;;;1.24;100.00;100046.20;1808775;79;20972;-74
2021/01/04 02:10:33;;;;;;;17.60;9.33;;;;;;;1.23;100.00;100041.32;1808650;78;21348;-74
2021/01/04 02:13:26;;;;;;;17.35;8.95;;;;;;;1.23;100.00;100041.32;1808740;79;20944;-75
2021/01/04 02:16:05;;;;;;;17.20;8.70;;;;;;;1.24;100.00;100049.72;1808660;79;20995;-75
2021/01/04 02:18:48;;;;;;;20.37;10.30;;;;;;;1.24;100.00;100041.61;1808712;79;21819;-75
2021/01/04 02:21:42;;;;;;;;;;;;;;;1.26;100.00;100044.89;1812757;78;21059;-75
2021/01/04 02:24:12;;;;;;;19.45;9.63;;;;;;;1.27;100.00;100038.95;1791390;79;21362;-76
2021/01/04 02:26:47;;;;;;;19.15;9.93;;;;;;;1.28;100.00;100043.30;1778326;79;21451;-75
2021/01/04 02:29:19;;;;;;;22.27;11.10;;;;;;;1.29;100.00;100038.17;1758859;79;20996;-75
2021/01/04 02:31:50;;;;;;;25.88;13.45;;;;;;;1.29;100.00;100030.87;1807131;79;20964;-74
2021/01/04 02:34:22;;;;;;;23.32;12.60;;;;;;;1.28;100.00;100025.19;1808256;79;20896;-74
2021/01/04 02:36:53;;;;;;;26.30;13.37;;;;;;;1.30;100.00;100033.05;1808856;78;21415;-73
2021/01/04 02:39:38;;;;;;;27.67;13.05;;;;;;;1.30;100.00;100024.41;1808573;78;20932;-73
2021/01/04 02:42:11;;;;;;;36.73;16.57;;;;;;;1.31;100.00;100030.64;1808410;79;21491;-73
2021/01/04 02:44:38;;;;;;;;;;;;;;;1.32;100.00;100031.75;1809329;79;20921;-73
2021/01/04 02:47:40;;;;;;;31.73;14.00;;;;;;;1.33;100.00;100042.03;1808329;79;20231;-73
2021/01/04 02:50:47;;;;;;;29.92;14.65;;;;;;;1.32;100.00;100043.10;1808339;79;21267;-74
2021/01/04 02:53:26;;;;;;;29.15;13.90;;;;;;;1.32;100.00;100049.86;1748840;82;21005;-74
2021/01/04 02:56:25;;;;;;;31.68;14.53;;;;;;;1.31;100.00;100052.28;1756649;81;21008;-74
2021/01/04 02:59:07;;;;;;;25.00;12.33;;;;;;;1.31;100.00;100053.63;1756570;81;20948;-77
2021/01/04 03:02:08;;;;;;;23.55;12.28;;;;;;;1.32;100.00;100047.98;1756243;81;21056;-76
2021/01/04 03:04:36;;;;;;;20.85;10.35;;;;;;;1.33;100.00;100045.56;1753096;81;21376;-76
2021/01/04 03:07:18;;;;;;;18.23;9.53;;;;;;;1.36;100.00;100041.55;1753218;81;21072;-74
2021/01/04 03:09:51;;;;;;;15.98;9.20;;;;;;;1.39;100.00;100044.30;1753746;81;21189;-75
2021/01/04 03:12:28;;;;;;;18.05;9.83;;;;;;;1.40;100.00;100049.47;1753884;81;21493;-75
2021/01/04 03:15:13;;;;;;;19.45;9.15;;;;;;;1.42;100.00;100050.05;1753855;81;21147;-75
2021/01/04 03:18:23;;;;;;;15.85;8.70;;;;;;;1.42;100.00;100051.94;1754182;81;21307;-75
2021/01/04 03:20:51;;;;;;;18.67;10.03;;;;;;;1.43;100.00;100046.81;1754399;81;20941;-75
2021/01/04 03:23:19;;;;;;;22.27;10.35;;;;;;;1.42;100.00;100047.34;1727214;81;20957;-75
2021/01/04 03:25:59;;;;;;;21.30;10.50;;;;;;;1.41;100.00;100047.05;1746084;80;21099;-76
2021/01/04 03:28:29;;;;;;;19.70;9.93;;;;;;;1.42;100.00;100047.88;1736893;80;20956;-75
2021/01/04 03:30:58;;;;;;;16.55;9.60;;;;;;;1.42;100.00;100049.23;1714659;81;21380;-74
2021/01/04 03:33:26;;;;;;;16.25;8.95;;;;;;;1.42;100.00;100036.52;1748840;80;21606;-74
2021/01/04 03:35:54;;;;;;;20.00;10.00;;;;;;;1.42;100.00;100040.58;1749787;80;20957;-74
2021/01/04 03:38:22;;;;;;;18.57;8.98;;;;;;;1.43;100.00;100030.05;1749989;80;21021;-74
2021/01/04 03:40:50;;;;;;;17.07;9.40;;;;;;;1.44;100.00;100022.75;1749632;82;20946;-74
2021/01/04 03:43:17;;;;;;;19.12;9.23;;;;;;;1.44;100.00;100020.05;1750440;82;21877;-74
2021/01/04 03:45:47;;;;;;;19.85;9.53;;;;;;;1.45;100.00;100010.86;1750627;82;20983;-73
2021/01/04 03:48:16;;;;;;;17.15;8.98;;;;;;;1.43;100.00;100012.99;1749818;82;21100;-73
2021/01/04 03:50:44;;;;;;;16.70;8.53;;;;;;;1.43;100.00;100017.88;1760437;81;21004;-74
2021/01/04 03:53:12;;;;;;;16.15;8.55;;;;;;;1.43;100.00;100017.05;1766019;80;21037;-75
2021/01/04 03:55:41;;;;;;;20.95;10.18;;;;;;;1.42;100.00;100014.88;1766037;81;21499;-74
2021/01/04 03:58:11;;;;;;;21.85;10.55;;;;;;;1.40;100.00;100016.19;1766402;81;20942;-81
2021/01/04 04:00:38;;;;;;;17.75;10.43;;;;;;;1.38;100.00;100025.08;1767547;81;21480;-73
2021/01/04 04:03:07;;;;;;;19.23;10.72;;;;;;;1.36;100.00;100026.67;1767697;81;21487;-72
2021/01/04 04:05:35;;;;;;;20.70;10.93;;;;;;;1.37;100.00;100019.38;1767677;81;20991;-73
2021/01/04 04:08:04;;;;;;;20.00;10.78;;;;;;;1.37;100.00;100018.02;1765448;81;21308;-72
2021/01/04 04:10:31;;;;;;;21.33;10.90;;;;;;;1.37;100.00;100018.84;1765501;81;21483;-70
2021/01/04 04:12:59;;;;;;;23.32;11.30;;;;;;;1.37;100.00;100020.20;1741879;81;20957;-70
2021/01/04 04:15:31;;;;;;;20.27;10.08;;;;;;;1.37;100.00;100037.78;1765718;80;21487;-72
2021/01/04 04:17:58;;;;;;;21.57;11.10;;;;;;;1.39;100.00;100038.89;1765509;81;20933;-71
2021/01/04 04:20:26;;;;;;;20.23;10.32;;;;;;;1.40;100.00;100029.18;1765491;80;21797;-78
2021/01/04 04:22:55;;;;;;;23.25;11.80;;;;;;;1.41;100.00;100025.94;1765331;79;21027;-73
2021/01/04 04:25:25;;;;;;;25.45;11.05;;;;;;;1.41;100.00;100019.17;1765386;81;21547;-73
2021/01/04 04:27:56;;;;;;;20.30;11.10;;;;;;;1.41;100.00;100021.88;1765398;81;21027;-72
2021/01/04 04:30:24;;;;;;;19.30;10.53;;;;;;;1.40;100.00;100025.12;1765449;81;21001;-73
2021/01/04 04:32:55;;;;;;;20.65;10.50;;;;;;;1.38;100.00;100015.61;1765443;81;21365;-73
2021/01/04 04:35:23;;;;;;;20.57;11.12;;;;;;;1.39;100.00;100018.07;1765297;81;21024;-72
2021/01/04 04:37:51;;;;;;;20.35;11.08;;;;;;;1.40;100.00;100017.53;1764189;81;21618;-72
2021/01/04 04:40:30;;;;;;;17.82;10.08;;;;;;;1.38;100.00;100015.61;1765087;81;21488;-75
2021/01/04 04:43:10;;;;;;;17.62;9.45;;;;;;;1.38;100.00;100008.31;1765295;81;21068;-76
2021/01/04 04:45:39;;;;;;;20.35;10.32;;;;;;;1.39;100.00;100011.84;1755928;80;22352;-75
2021/01/04 04:48:31;;;;;;;18.25;10.25;;;;;;;1.36;100.00;100011.80;1765425;81;20996;-75
2021/01/04 04:51:08;;;;;;;18.23;10.18;;;;;;;1.37;100.00;100008.03;1765060;81;20937;-73
2021/01/04 04:53:56;;;;;;;21.10;10.82;;;;;;;1.35;100.00;100007.45;1700169;83;21002;-74
2021/01/04 04:56:50;;;;;;;24.43;12.15;;;;;;;1.37;100.00;100015.32;1697831;84;21006;-76
2021/01/04 04:59:56;;;;;;;20.23;10.10;;;;;;;1.36;100.00;99996.91;1697870;84;21436;-75
2021/01/04 05:02:36;;;;;;;20.90;10.20;;;;;;;1.35;100.00;99994.45;1707709;82;21034;-74
2021/01/04 05:05:29;;;;;;;19.02;8.73;;;;;;;1.35;100.00;99990.39;1741804;80;21155;-72
2021/01/04 05:08:17;;;;;;;18.60;9.97;;;;;;;1.35;100.00;100002.57;1726423;83;21083;-73
2021/01/04 05:10:45;;;;;;;19.42;10.50;;;;;;;1.35;100.00;100009.33;1725896;83;21821;-72
2021/01/04 05:13:25;;;;;;;17.70;9.28;;;;;;;1.34;100.00;100005.81;1699581;83;21290;-73
2021/01/04 05:16:11;;;;;;;17.67;9.90;;;;;;;1.35;100.00;100001.22;1726027;83;20965;-79
2021/01/04 05:19:06;;;;;;;20.80;9.25;;;;;;;1.33;100.00;99999.58;1726115;83;20949;-71
2021/01/04 05:21:54;;;;;;;17.95;9.75;;;;;;;1.32;100.00;99998.47;1726236;83;21032;-73
2021/01/04 05:24:43;;;;;;;19.92;10.38;;;;;;;1.31;100.00;100004.94;1726134;81;21475;-73
2021/01/04 05:27:41;;;;;;;21.15;11.00;;;;;;;1.29;100.00;100014.66;1725828;83;21395;-73
2021/01/04 05:30:43;;;;;;;22.77;10.82;;;;;;;1.29;100.00;100020.06;1726000;83;21514;-73
2021/01/04 05:33:22;;;;;;;23.10;11.22;;;;;;;1.30;100.00;100025.77;1732303;80;21107;-73
2021/01/04 05:35:58;;;;;;;21.85;11.12;;;;;;;1.31;100.00;100027.41;1754083;80;20953;-74
2021/01/04 05:38:40;;;;;;;20.77;10.88;;;;;;;1.31;100.00;100026.58;1754945;81;20977;-73
2021/01/04 05:41:22;;;;;;;21.07;11.07;;;;;;;1.30;100.00;100020.35;1754885;81;21697;-71
2021/01/04 05:44:21;;;;;;;;;;;;;;;1.32;100.00;100025.52;1756910;80;20969;-73
2021/01/04 05:47:11;;;;;;;20.77;11.40;;;;;;;1.32;100.00;100021.46;1754044;81;20256;-71
2021/01/04 05:49:47;;;;;;;20.85;11.63;;;;;;;1.30;100.00;100016.30;1754424;81;20933;-70
2021/01/04 05:52:18;;;;;;;15.45;8.83;;;;;;;1.31;100.00;100018.47;1754658;81;20977;-70
2021/01/04 05:54:45;;;;;;;18.40;10.35;;;;;;;1.31;100.00;100013.87;1754572;81;21204;-71
2021/01/04 05:57:17;;;;;;;15.55;9.25;;;;;;;1.30;100.00;100016.30;1754495;81;21028;-74
2021/01/04 05:59:49;;;;;;;16.30;8.93;;;;;;;1.29;100.00;100019.24;1754693;81;20985;-72
2021/01/04 06:02:35;;;;;;;19.92;9.48;;;;;;;1.29;100.00;100024.13;1754543;81;21138;-71
2021/01/04 06:05:16;;;;;;;17.10;9.45;;;;;;;1.29;100.00;100022.77;1754702;81;21048;-69
2021/01/04 06:07:45;;;;;;;20.45;8.93;;;;;;;1.29;100.00;100025.47;1754574;80;21213;-68
2021/01/04 06:10:22;;;;;;;16.55;9.78;;;;;;;1.31;100.00;100030.11;1727424;81;21578;-70
2021/01/04 06:12:51;;;;;;;21.45;10.72;;;;;;;1.31;100.00;100029.28;1752198;80;21480;-72
2021/01/04 06:15:32;;;;;;;17.75;9.48;;;;;;;1.30;100.00;100029.81;1755070;81;21076;-73
2021/01/04 06:18:12;;;;;;;16.55;9.40;;;;;;;1.30;100.00;100029.81;1754590;81;21464;-73
2021/01/04 06:20:54;;;;;;;19.32;9.90;;;;;;;1.29;100.00;100032.77;1754551;81;21216;-72
2021/01/04 06:23:33;;;;;;;17.50;9.38;;;;;;;1.28;100.00;100031.95;1754620;81;20989;-66
2021/01/04 06:26:14;;;;;;;18.15;9.08;;;;;;;1.31;100.00;100037.40;1754593;81;20946;-66
2021/01/04 06:28:59;;;;;;;17.82;10.00;;;;;;;1.35;100.00;100039.09;1754655;81;21068;-68
2021/01/04 06:31:45;;;;;;;20.35;10.28;;;;;;;1.36;100.00;100038.02;1754682;81;20988;-70
2021/01/04 06:34:20;;;;;;;19.92;11.55;;;;;;;1.36;100.00;100038.84;1754599;81;21202;-68
2021/01/04 06:36:51;;;;;;;18.02;10.23;;;;;;;1.38;100.00;100044.84;1754652;81;20957;-68
2021/01/04 06:39:27;;;;;;;20.82;11.68;;;;;;;1.38;100.00;100038.07;1754659;81;20926;-70
2021/01/04 06:41:57;;;;;;;30.62;20.65;;;;;;;1.38;100.00;100038.07;1754424;81;21171;-68
2021/01/04 06:44:29;;;;;;;37.63;25.92;;;;;;;1.39;100.00;100039.71;1754812;81;21583;-66
2021/01/04 06:47:14;;;;;;;30.02;20.23;;;;;;;1.39;100.00;100033.48;1728148;81;21475;-70
2021/01/04 06:50:06;;;;;;;34.73;22.00;;;;;;;1.39;100.00;100022.66;1729872;81;21131;-69
2021/01/04 06:52:46;;;;;;;32.80;21.25;;;;;;;1.40;100.00;100031.88;1754690;81;21135;-69
2021/01/04 06:55:41;;;;;;;31.87;22.15;;;;;;;1.41;100.00;100025.94;1742366;81;21626;-69
2021/01/04 06:58:17;;;;;;;41.83;30.27;;;;;;;1.40;100.00;100027.83;1754702;81;21599;-69
2021/01/04 07:01:15;;;;;;;50.50;34.25;;;;;;;1.40;100.00;100032.42;1754247;81;21288;-68
2021/01/04 07:04:10;;;;;;;68.02;45.38;;;;;;;1.42;100.00;100031.64;1754717;81;21646;-69
2021/01/04 07:07:20;;;;;;;86.50;58.60;;;;;;;1.43;100.00;100031.93;1754263;81;21080;-67
2021/01/04 07:10:13;;;;;;;95.35;60.58;;;;;;;1.43;100.00;100030.58;1754661;81;21064;-70
2021/01/04 07:13:09;;;;;;;74.32;45.55;;;;;;;1.43;100.00;100026.52;1754801;80;20937;-70
2021/01/04 07:15:51;;;;;;;78.17;46.28;;;;;;;1.42;100.00;100022.17;1748994;81;21229;-68
2021/01/04 07:18:41;;;;;;;78.25;48.75;;;;;;;1.43;100.00;100027.34;1754735;81;20913;-68
2021/01/04 07:21:27;;;;;;;94.47;54.13;;;;;;;1.44;100.00;100027.63;1754725;81;21001;-68
2021/01/04 07:24:33;;;;;;;90.40;56.08;;;;;;;1.44;100.00;100027.63;1754050;81;21001;-69
2021/01/04 07:27:15;;;;;;;88.60;53.95;;;;;;;1.46;100.00;100026.03;1754639;81;21068;-70
2021/01/04 07:30:00;;;;;;;73.52;48.40;;;;;;;1.47;100.00;100039.31;1754945;81;21209;-71
2021/01/04 07:32:50;;;;;;;57.33;39.15;;;;;;;1.47;100.00;100037.14;1754622;81;20997;-68
2021/01/04 07:35:41;;;;;;;59.48;39.05;;;;;;;1.49;100.00;100035.84;1754744;81;21461;-69
2021/01/04 07:38:20;;;;;;;61.40;39.98;;;;;;;1.50;100.00;100035.30;1754767;81;21503;-73
2021/01/04 07:41:11;;;;;;;78.40;48.50;;;;;;;1.50;100.00;100040.72;1754784;81;21225;-71
2021/01/04 07:44:05;;;;;;;47.35;31.10;;;;;;;1.50;100.00;100032.59;1754680;81;21207;-70
2021/01/04 07:47:04;;;;;;;38.50;26.00;;;;;;;1.50;100.00;100036.13;1726955;81;20954;-72
2021/01/04 07:50:04;;;;;;;48.00;29.05;;;;;;;1.52;100.00;100033.17;1754572;81;21187;-72
2021/01/04 07:53:15;;;;;;;34.58;18.85;;;;;;;1.54;100.00;100038.62;1749560;81;21068;-68
2021/01/04 07:55:49;;;;;;;55.12;33.42;;;;;;;1.56;100.00;100044.62;1749128;80;21598;-69
2021/01/04 07:58:52;;;;;;;49.63;33.23;;;;;;;1.58;100.00;100047.08;1749038;82;21209;-68
2021/01/04 08:01:56;;;;;;;38.02;24.05;;;;;;;1.59;100.00;100047.37;1748028;80;20914;-76
2021/01/04 08:05:04;;;;;;;48.98;29.02;;;;;;;1.62;100.00;100052.30;1711540;82;21191;-76
2021/01/04 08:08:01;;;;;;;53.52;30.23;;;;;;;1.64;100.00;100056.92;1750187;81;21158;-75
2021/01/04 08:10:49;;;;;;;40.92;24.18;;;;;;;1.66;100.00;100053.44;1743737;81;21067;-70
2021/01/04 08:14:10;;;;;;;67.17;41.85;;;;;;;1.67;100.00;100051.03;1740798;82;21201;-74
2021/01/04 08:16:48;;;;;;;69.00;44.65;;;;;;;1.69;100.00;100054.31;1732636;82;21584;-68
2021/01/04 08:19:16;;;;;;;71.65;44.40;;;;;;;1.72;100.00;100061.12;1732629;82;20999;-69
2021/01/04 08:22:01;;;;;;;66.33;42.65;;;;;;;1.74;100.00;100046.24;1716074;82;21177;-69
2021/01/04 08:24:46;;;;;;;46.50;27.27;;;;;;;1.77;100.00;100049.81;1732465;82;20936;-71
2021/01/04 08:27:53;;;;;;;47.43;27.93;;;;;;;1.80;100.00;100047.14;1753585;81;21355;-72
2021/01/04 08:30:43;;;;;;;66.35;40.85;;;;;;;1.83;100.00;100053.42;1753582;81;21494;-69
2021/01/04 08:33:18;;;;;;;63.52;38.42;;;;;;;1.86;100.00;100057.81;1751827;81;20944;-70
2021/01/04 08:35:46;;;;;;;51.92;30.75;;;;;;;1.90;100.00;100054.08;1753450;81;21126;-71
2021/01/04 08:38:22;;;;;;;50.03;28.83;;;;;;;1.90;100.00;100044.61;1753640;81;21228;-70
2021/01/04 08:41:17;;;;;;;49.83;26.35;;;;;;;1.91;100.00;100040.30;1727567;81;22258;-71
2021/01/04 08:43:48;;;;;;;43.52;26.48;;;;;;;1.95;100.00;100038.73;1741277;81;21141;-68
2021/01/04 08:46:27;;;;;;;44.13;27.25;;;;;;;1.97;100.00;100042.55;1732726;82;21554;-70
2021/01/04 08:49:02;;;;;;;43.58;22.37;;;;;;;1.98;100.00;100046.90;1732764;82;21007;-70
2021/01/04 08:51:35;;;;;;;44.23;23.38;;;;;;;1.98;100.00;100045.55;1754424;81;21066;-72
2021/01/04 08:54:29;;;;;;;45.98;24.70;;;;;;;1.99;100.00;100043.94;1764856;81;21202;-68
2021/01/04 08:57:19;;;;;;;37.90;20.00;;;;;;;2.01;100.00;100049.65;1733722;82;21602;-69
2021/01/04 09:00:00;;;;;;;42.13;19.05;;;;;;;1.99;100.00;100047.19;1739203;82;21157;-69
2021/01/04 09:02:41;;;;;;;38.83;18.70;;;;;;;1.99;100.00;100048.01;1739348;82;21180;-70
2021/01/04 09:05:12;;;;;;;39.63;20.10;;;;;;;2.01;100.00;100046.41;1739290;82;21113;-70
2021/01/04 09:07:51;;;;;;;41.75;20.68;;;;;;;2.02;100.00;100043.98;1739198;82;21148;-70
2021/01/04 09:10:24;;;;;;;35.52;17.62;;;;;;;2.01;100.00;100047.77;1739114;81;21070;-76
2021/01/04 09:12:54;;;;;;;39.03;18.17;;;;;;;2.03;100.00;100052.39;1738960;82;21605;-74
2021/01/04 09:15:27;;;;;;;34.83;17.12;;;;;;;2.04;100.00;100044.55;1724311;82;21074;-69
2021/01/04 09:18:08;;;;;;;30.82;15.40;;;;;;;2.07;100.00;100048.66;1739265;82;20971;-72
2021/01/04 09:21:02;;;;;;;28.23;14.78;;;;;;;2.08;100.00;100045.70;1739289;81;21205;-76
2021/01/04 09:23:34;;;;;;;34.85;17.73;;;;;;;2.10;100.00;100053.05;1739250;81;21636;-78
2021/01/04 09:26:10;;;;;;;35.23;16.77;;;;;;;2.10;100.00;100048.98;1739352;82;20971;-76
2021/01/04 09:28:47;;;;;;;30.80;15.60;;;;;;;2.10;100.00;100048.98;1735289;82;21462;-73
2021/01/04 09:31:17;;;;;;;32.05;15.18;;;;;;;2.12;100.00;100046.85;1739253;82;21052;-75
2021/01/04 09:33:49;;;;;;;34.40;16.15;;;;;;;2.15;100.00;100040.94;1739217;82;21446;-69
2021/01/04 09:36:20;;;;;;;36.58;17.15;;;;;;;2.17;100.00;100042.05;1739046;81;20955;-71
2021/01/04 09:38:49;;;;;;;33.98;16.82;;;;;;;2.18;100.00;100039.09;1739191;82;20973;-71
2021/01/04 09:41:17;;;;;;;34.92;16.00;;;;;;;2.19;100.00;100035.84;1739299;82;21132;-74
2021/01/04 09:43:45;;;;;;;28.50;14.85;;;;;;;2.19;100.00;100030.42;1739297;82;21026;-75
2021/01/04 09:46:26;;;;;;;28.90;15.68;;;;;;;2.20;100.00;100029.36;1738990;81;22375;-73
2021/01/04 09:49:20;;;;;;;33.33;15.75;;;;;;;2.22;100.00;100029.39;1739098;82;21023;-73
2021/01/04 09:51:52;;;;;;;34.27;16.95;;;;;;;2.24;100.00;100025.08;1736538;82;20975;-75
2021/01/04 09:54:22;;;;;;;;;;;;;;;2.27;100.00;100025.94;1754719;81;21106;-85
2021/01/04 09:56:50;;;;;;;31.90;15.45;;;;;;;2.30;100.00;100031.67;1757085;81;20499;-74
2021/01/04 09:59:21;;;;;;;29.50;16.30;;;;;;;2.31;100.00;100026.52;1790935;79;21333;-75
2021/01/04 10:01:59;;;;;;;33.85;16.05;;;;;;;2.33;100.00;100026.27;1731866;82;21091;-71
2021/01/04 10:04:33;;;;;;;31.52;16.37;;;;;;;2.33;100.00;100018.13;1731897;82;21003;-71
2021/01/04 10:07:04;;;;;;;33.10;16.00;;;;;;;2.34;100.00;100022.48;1731797;82;20944;-73
2021/01/04 10:09:35;;;;;;;29.60;16.27;;;;;;;2.36;100.00;100021.70;1731869;82;20961;-78
2021/01/04 10:12:04;;;;;;;30.82;17.32;;;;;;;2.39;100.00;100020.37;1720044;82;21371;-83
2021/01/04 10:14:32;;;;;;;32.30;16.75;;;;;;;2.40;100.00;100018.77;1732156;82;20965;-82
2021/01/04 10:17:01;;;;;;;30.17;16.57;;;;;;;2.42;100.00;100019.34;1732060;81;20928;-79
2021/01/04 10:19:40;;;;;;;32.23;17.92;;;;;;;2.42;100.00;100011.22;1732031;81;20952;-83
2021/01/04 10:22:20;;;;;;;34.58;17.02;;;;;;;2.46;100.00;100016.42;1732048;82;21106;-80
2021/01/04 10:25:01;;;;;;;36.38;16.75;;;;;;;2.52;100.00;100024.08;1731752;81;21217;-76
2021/01/04 10:27:29;;;;;;;35.95;17.50;;;;;;;2.55;100.00;100021.69;1731498;82;21099;-81
2021/01/04 10:30:00;;;;;;;36.68;18.75;;;;;;;2.58;100.00;100023.90;1730224;82;20943;-73
2021/01/04 10:32:31;;;;;;;38.70;18.27;;;;;;;2.60;100.00;100027.17;1707670;82;21170;-79
2021/01/04 10:34:59;;;;;;;35.65;16.82;;;;;;;2.62;100.00;100024.21;1732084;82;21039;-75
2021/01/04 10:38:02;;;;;;;35.95;17.12;;;;;;;2.62;100.00;100021.50;1732022;82;21388;-77
2021/01/04 10:40:29;;;;;;;29.70;15.63;;;;;;;2.63;100.00;100025.31;1733027;82;26761;-81
2021/01/04 10:43:02;;;;;;;34.90;17.50;;;;;;;2.64;100.00;100029.67;1719744;82;21581;-81
2021/01/04 10:45:34;;;;;;;33.35;15.85;;;;;;;2.64;100.00;100024.78;1732194;81;20956;-77
2021/01/04 10:48:15;;;;;;;34.10;15.77;;;;;;;2.65;100.00;100019.11;1732382;82;21515;-77
2021/01/04 10:50:51;;;;;;;38.53;18.65;;;;;;;2.65;100.00;100017.75;1732314;82;22311;-83
2021/01/04 10:53:37;;;;;;;36.33;17.30;;;;;;;2.67;100.00;100013.97;1731572;81;21075;-75
2021/01/04 10:56:20;;;;;;;32.35;15.75;;;;;;;2.70;100.00;100019.71;1753417;80;21141;-79
2021/01/04 10:58:58;;;;;;;31.68;15.88;;;;;;;2.72;100.00;100015.39;1765471;80;20931;-74
2021/01/04 11:01:33;;;;;;;31.85;16.15;;;;;;;2.74;100.00;100007.29;1731705;82;21565;-77
2021/01/04 11:04:12;;;;;;;30.92;15.10;;;;;;;2.78;100.00;100006.24;1732041;82;21213;-75
2021/01/04 11:06:44;;;;;;;33.85;15.70;;;;;;;2.78;100.00;99999.47;1732614;82;20998;-81
2021/01/04 11:09:23;;;;;;;30.95;16.07;;;;;;;2.78;100.00;100003.00;1730849;82;21086;-76
2021/01/04 11:11:53;;;;;;;29.25;14.83;;;;;;;2.75;100.00;99994.02;1732922;82;21533;-82
2021/01/04 11:14:23;;;;;;;31.33;15.72;;;;;;;2.74;100.00;99991.56;1732361;82;20951;-78
2021/01/04 11:17:15;;;;;;;30.50;16.45;;;;;;;2.77;100.00;99997.30;1731434;82;22172;-79
2021/01/04 11:19:42;;;;;;;29.07;15.85;;;;;;;2.79;100.00;99999.75;1732781;82;20991;-80
2021/01/04 11:22:24;;;;;;;33.92;16.52;;;;;;;2.82;100.00;99993.82;1732048;82;20944;-71
2021/01/04 11:24:53;;;;;;;36.17;16.55;;;;;;;2.83;100.00;99987.33;1732001;82;21593;-73
2021/01/04 11:27:20;;;;;;;30.75;16.32;;;;;;;2.82;100.00;99987.86;1731984;82;21079;-73
2021/01/04 11:29:48;;;;;;;38.73;17.15;;;;;;;2.82;100.00;99988.39;1731909;82;21827;-76
2021/01/04 11:32:17;;;;;;;38.70;16.85;;;;;;;2.83;100.00;99988.14;1731876;82;21130;-76
2021/01/04 11:34:52;;;;;;;37.78;17.87;;;;;;;2.85;100.00;99983.83;1731950;81;21035;-72
2021/01/04 11:37:23;;;;;;;36.08;18.70;;;;;;;2.87;100.00;99985.20;1732018;82;21609;-73
2021/01/04 11:39:51;;;;;;;37.03;18.77;;;;;;;2.90;100.00;99983.84;1732013;82;21087;-76
2021/01/04 11:42:19;;;;;;;36.63;19.10;;;;;;;2.92;100.00;99989.84;1732384;82;21202;-73
2021/01/04 11:44:47;;;;;;;39.03;17.85;;;;;;;2.92;100.00;99988.48;1732023;82;21019;-73
2021/01/04 11:47:16;;;;;;;35.85;18.73;;;;;;;2.94;100.00;99997.18;1733878;82;21111;-74
2021/01/04 11:49:43;;;;;;;32.93;17.55;;;;;;;2.93;100.00;99998.25;1732390;81;21154;-76
2021/01/04 11:52:11;;;;;;;37.53;17.30;;;;;;;2.92;100.00;100011.53;1734997;81;21076;-77
2021/01/04 11:54:43;;;;;;;38.95;18.42;;;;;;;2.92;100.00;100021.84;1763867;81;21389;-73
2021/01/04 11:57:11;;;;;;;34.70;17.45;;;;;;;2.91;100.00;100017.49;1764048;81;20968;-73
2021/01/04 11:59:40;;;;;;;35.40;17.48;;;;;;;2.89;100.00;100021.00;1763898;79;20964;-78
2021/01/04 12:02:08;;;;;;;36.50;17.73;;;;;;;2.88;100.00;100026.70;1763743;80;21055;-73
2021/01/04 12:04:36;;;;;;;35.43;18.75;;;;;;;2.88;100.00;100022.64;1763882;81;21150;-68
2021/01/04 12:07:04;;;;;;;32.40;17.02;;;;;;;2.88;100.00;100023.99;1739469;81;21206;-69
2021/01/04 12:09:32;;;;;;;37.63;17.52;;;;;;;2.91;100.00;100032.95;1760484;81;21090;-67
2021/01/04 12:12:02;;;;;;;33.45;17.20;;;;;;;2.93;100.00;100025.38;1735502;81;21062;-67